AAL2 KDCA-KPWM
Flight info
| Callsign | AAL2 |
|---|---|
| Flight time | 1h 15m |
| Altitude | 29000 |
| Route | SOOKI6 SWANN BROSS Q419 RBV Q22 LLUND BDR SCOGS3 |
| Aircraft | A321/M-SDE3FGHIRWY/LB1 |
Departure
| Time | 2026-05-03 21:39 |
|---|---|
| Airport | Ronald Reagan Washington National Airport (KDCA) |
Arrival
| Time | 2026-05-03 22:54 |
|---|---|
| Airport | Portland International Jetport (KPWM) |
| Time | Latitude | Longitude | Altitude | Speed | Heading |
|---|---|---|---|---|---|
| 2026-05-03 20:17 | 38.85572 | -77.04168 | 26 ft | 0 kts | 334° |
| 2026-05-03 21:23 | 38.85555 | -77.04157 | 27 ft | 3 kts | 334° |
| 2026-05-03 21:23 | 38.85538 | -77.04145 | 27 ft | 0 kts | 308° |
| 2026-05-03 21:23 | 38.85529 | -77.04134 | 25 ft | 3 kts | 351° |
| 2026-05-03 21:24 | 38.85510 | -77.04137 | 26 ft | 3 kts | 53° |
| 2026-05-03 21:24 | 38.85504 | -77.04159 | 27 ft | 3 kts | 102° |
| 2026-05-03 21:24 | 38.85509 | -77.04181 | 25 ft | 3 kts | 81° |
| 2026-05-03 21:24 | 38.85507 | -77.04192 | 25 ft | 0 kts | 73° |
| 2026-05-03 21:25 | 38.85510 | -77.04184 | 25 ft | 2 kts | 63° |
| 2026-05-03 21:26 | 38.85518 | -77.04164 | 25 ft | 3 kts | 64° |
| 2026-05-03 21:26 | 38.85527 | -77.04130 | 25 ft | 5 kts | 72° |
| 2026-05-03 21:26 | 38.85534 | -77.04102 | 25 ft | 0 kts | 72° |
| 2026-05-03 21:27 | 38.85538 | -77.04085 | 24 ft | 5 kts | 72° |
| 2026-05-03 21:27 | 38.85536 | -77.04028 | 24 ft | 7 kts | 133° |
| 2026-05-03 21:27 | 38.85486 | -77.04010 | 24 ft | 8 kts | 173° |
| 2026-05-03 21:28 | 38.85473 | -77.04009 | 24 ft | 0 kts | 176° |
| 2026-05-03 21:29 | 38.85471 | -77.04008 | 24 ft | 1 kts | 175° |
| 2026-05-03 21:29 | 38.85467 | -77.04008 | 24 ft | 0 kts | 175° |
| 2026-05-03 21:30 | 38.85466 | -77.04008 | 24 ft | 1 kts | 175° |
| 2026-05-03 21:30 | 38.85457 | -77.04007 | 24 ft | 2 kts | 175° |
| 2026-05-03 21:30 | 38.85433 | -77.04004 | 24 ft | 7 kts | 175° |
| 2026-05-03 21:30 | 38.85335 | -77.03995 | 24 ft | 19 kts | 176° |
| 2026-05-03 21:31 | 38.85223 | -77.03985 | 24 ft | 12 kts | 175° |
| 2026-05-03 21:31 | 38.85139 | -77.03976 | 24 ft | 13 kts | 175° |
| 2026-05-03 21:31 | 38.85062 | -77.03968 | 24 ft | 9 kts | 175° |
| 2026-05-03 21:31 | 38.84992 | -77.03962 | 24 ft | 11 kts | 175° |
| 2026-05-03 21:32 | 38.84911 | -77.03954 | 24 ft | 12 kts | 175° |
| 2026-05-03 21:32 | 38.84821 | -77.03945 | 24 ft | 14 kts | 176° |
| 2026-05-03 21:32 | 38.84728 | -77.03979 | 24 ft | 15 kts | 203° |
| 2026-05-03 21:32 | 38.84634 | -77.04038 | 24 ft | 15 kts | 194° |
| 2026-05-03 21:33 | 38.84532 | -77.04014 | 25 ft | 14 kts | 168° |
| 2026-05-03 21:33 | 38.84435 | -77.03995 | 26 ft | 14 kts | 172° |
| 2026-05-03 21:33 | 38.84341 | -77.03958 | 26 ft | 14 kts | 149° |
| 2026-05-03 21:33 | 38.84267 | -77.03898 | 26 ft | 13 kts | 159° |
| 2026-05-03 21:34 | 38.84201 | -77.03875 | 24 ft | 6 kts | 115° |
| 2026-05-03 21:34 | 38.84204 | -77.03856 | 24 ft | 0 kts | 79° |
| 2026-05-03 21:36 | 38.84193 | -77.03815 | 24 ft | 6 kts | 112° |
| 2026-05-03 21:36 | 38.84189 | -77.03801 | 24 ft | 0 kts | 109° |
| 2026-05-03 21:37 | 38.84188 | -77.03795 | 24 ft | 2 kts | 109° |
| 2026-05-03 21:37 | 38.84186 | -77.03787 | 24 ft | 2 kts | 108° |
| 2026-05-03 21:37 | 38.84180 | -77.03762 | 25 ft | 6 kts | 107° |
| 2026-05-03 21:37 | 38.84168 | -77.03715 | 25 ft | 4 kts | 108° |
| 2026-05-03 21:38 | 38.84172 | -77.03679 | 24 ft | 4 kts | 52° |
| 2026-05-03 21:38 | 38.84187 | -77.03678 | 25 ft | 0 kts | 354° |
| 2026-05-03 21:38 | 38.84202 | -77.03680 | 24 ft | 10 kts | 354° |
| 2026-05-03 21:39 | 38.84541 | -77.03715 | 24 ft | 87 kts | 355° |
| 2026-05-03 21:39 | 38.85376 | -77.03800 | 28 ft | 151 kts | 355° |
| 2026-05-03 21:39 | 38.86490 | -77.03917 | 471 ft | 166 kts | 350° |
| 2026-05-03 21:39 | 38.87556 | -77.04461 | 1192 ft | 166 kts | 322° |
| 2026-05-03 21:40 | 38.88432 | -77.05395 | 1917 ft | 169 kts | 319° |
| 2026-05-03 21:40 | 38.89384 | -77.06415 | 2317 ft | 189 kts | 320° |
| 2026-05-03 21:40 | 38.90303 | -77.07733 | 2562 ft | 210 kts | 299° |
| 2026-05-03 21:40 | 38.91047 | -77.09496 | 2760 ft | 234 kts | 298° |
| 2026-05-03 21:41 | 38.92102 | -77.11203 | 3080 ft | 256 kts | 323° |
| 2026-05-03 21:41 | 38.93589 | -77.12456 | 3774 ft | 262 kts | 327° |
| 2026-05-03 21:41 | 38.95146 | -77.13694 | 4534 ft | 265 kts | 330° |
| 2026-05-03 21:41 | 38.96792 | -77.14793 | 5295 ft | 269 kts | 340° |
| 2026-05-03 21:42 | 38.98644 | -77.15002 | 6003 ft | 273 kts | 12° |
| 2026-05-03 21:42 | 39.00345 | -77.13928 | 6721 ft | 277 kts | 38° |
| 2026-05-03 21:42 | 39.01856 | -77.12373 | 7476 ft | 279 kts | 39° |
| 2026-05-03 21:42 | 39.03256 | -77.10579 | 8193 ft | 283 kts | 53° |
| 2026-05-03 21:43 | 39.04216 | -77.08402 | 8902 ft | 286 kts | 68° |
| 2026-05-03 21:43 | 39.04724 | -77.05918 | 9600 ft | 289 kts | 81° |
| 2026-05-03 21:43 | 39.05046 | -77.03350 | 10254 ft | 295 kts | 81° |
| 2026-05-03 21:43 | 39.05388 | -77.00643 | 10436 ft | 318 kts | 81° |
| 2026-05-03 21:44 | 39.05757 | -76.97744 | 10603 ft | 338 kts | 81° |
| 2026-05-03 21:44 | 39.06143 | -76.94719 | 11093 ft | 346 kts | 81° |
| 2026-05-03 21:44 | 39.06531 | -76.91672 | 11706 ft | 349 kts | 81° |
| 2026-05-03 21:44 | 39.06926 | -76.88574 | 12330 ft | 353 kts | 81° |
| 2026-05-03 21:45 | 39.07322 | -76.85447 | 12954 ft | 356 kts | 81° |
| 2026-05-03 21:45 | 39.07722 | -76.82291 | 13548 ft | 359 kts | 81° |
| 2026-05-03 21:45 | 39.08124 | -76.79107 | 14138 ft | 362 kts | 81° |
| 2026-05-03 21:45 | 39.08529 | -76.75895 | 14720 ft | 365 kts | 81° |
| 2026-05-03 21:46 | 39.08940 | -76.72660 | 15291 ft | 368 kts | 80° |
| 2026-05-03 21:46 | 39.09385 | -76.69402 | 15852 ft | 371 kts | 79° |
| 2026-05-03 21:46 | 39.09853 | -76.66122 | 16396 ft | 374 kts | 79° |
| 2026-05-03 21:46 | 39.10332 | -76.62817 | 16924 ft | 377 kts | 79° |
| 2026-05-03 21:47 | 39.10811 | -76.59486 | 17451 ft | 380 kts | 79° |
| 2026-05-03 21:47 | 39.11289 | -76.56128 | 17953 ft | 383 kts | 79° |
| 2026-05-03 21:47 | 39.11768 | -76.52744 | 18470 ft | 386 kts | 79° |
| 2026-05-03 21:47 | 39.12218 | -76.49374 | 18937 ft | 388 kts | 81° |
| 2026-05-03 21:48 | 39.12627 | -76.45927 | 19410 ft | 391 kts | 82° |
| 2026-05-03 21:48 | 39.13007 | -76.42447 | 19869 ft | 394 kts | 82° |
| 2026-05-03 21:48 | 39.13380 | -76.38941 | 20316 ft | 396 kts | 82° |
| 2026-05-03 21:48 | 39.13757 | -76.35415 | 20756 ft | 399 kts | 82° |
| 2026-05-03 21:49 | 39.14142 | -76.31865 | 21190 ft | 402 kts | 82° |
| 2026-05-03 21:49 | 39.14536 | -76.28292 | 21609 ft | 404 kts | 82° |
| 2026-05-03 21:49 | 39.14939 | -76.24698 | 22016 ft | 407 kts | 82° |
| 2026-05-03 21:49 | 39.15340 | -76.21134 | 22409 ft | 409 kts | 82° |
| 2026-05-03 21:50 | 39.15757 | -76.17498 | 22802 ft | 411 kts | 81° |
| 2026-05-03 21:50 | 39.16180 | -76.13844 | 23192 ft | 414 kts | 81° |
| 2026-05-03 21:50 | 39.16607 | -76.10166 | 23574 ft | 416 kts | 81° |
| 2026-05-03 21:50 | 39.17035 | -76.06467 | 23947 ft | 419 kts | 81° |
| 2026-05-03 21:51 | 39.17459 | -76.02762 | 24321 ft | 421 kts | 82° |
| 2026-05-03 21:51 | 39.17885 | -75.99018 | 24686 ft | 423 kts | 82° |
| 2026-05-03 21:51 | 39.18333 | -75.95257 | 25037 ft | 426 kts | 78° |
| 2026-05-03 21:51 | 39.19148 | -75.91585 | 25362 ft | 428 kts | 68° |
| 2026-05-03 21:52 | 39.20456 | -75.88139 | 25708 ft | 430 kts | 58° |
| 2026-05-03 21:52 | 39.22220 | -75.85025 | 26030 ft | 432 kts | 48° |
| 2026-05-03 21:52 | 39.24378 | -75.82325 | 26354 ft | 433 kts | 40° |
| 2026-05-03 21:52 | 39.26687 | -75.79814 | 26672 ft | 436 kts | 40° |
| 2026-05-03 21:53 | 39.29007 | -75.77283 | 26988 ft | 438 kts | 40° |
| 2026-05-03 21:53 | 39.31337 | -75.74736 | 27300 ft | 440 kts | 40° |
| 2026-05-03 21:53 | 39.33673 | -75.72176 | 27605 ft | 442 kts | 40° |
| 2026-05-03 21:53 | 39.36021 | -75.69598 | 27912 ft | 444 kts | 40° |
| 2026-05-03 21:54 | 39.38378 | -75.67009 | 28205 ft | 446 kts | 40° |
| 2026-05-03 21:54 | 39.40744 | -75.64407 | 28485 ft | 448 kts | 40° |
| 2026-05-03 21:54 | 39.43124 | -75.61791 | 28752 ft | 451 kts | 40° |
| 2026-05-03 21:54 | 39.45528 | -75.59152 | 28903 ft | 455 kts | 40° |
| 2026-05-03 21:55 | 39.50417 | -75.53777 | 29010 ft | 466 kts | 40° |
| 2026-05-03 21:55 | 39.55298 | -75.48383 | 29010 ft | 462 kts | 40° |
| 2026-05-03 21:56 | 39.60173 | -75.42965 | 29010 ft | 470 kts | 40° |
| 2026-05-03 21:56 | 39.65179 | -75.37418 | 29009 ft | 475 kts | 40° |
| 2026-05-03 21:57 | 39.70206 | -75.31853 | 29010 ft | 475 kts | 40° |
| 2026-05-03 21:57 | 39.75229 | -75.26272 | 29008 ft | 475 kts | 40° |
| 2026-05-03 21:58 | 39.79321 | -75.21573 | 29001 ft | 461 kts | 46° |
| 2026-05-03 21:58 | 39.81412 | -75.18522 | 30018 ft | 445 kts | 43° |
| 2026-05-03 21:58 | 39.83447 | -75.15485 | 29641 ft | 448 kts | 42° |
| 2026-05-03 21:59 | 39.85507 | -75.12422 | 29073 ft | 451 kts | 42° |
| 2026-05-03 21:59 | 39.87607 | -75.09316 | 28973 ft | 460 kts | 42° |
| 2026-05-03 21:59 | 39.91813 | -75.03071 | 28996 ft | 458 kts | 43° |
| 2026-05-03 22:00 | 39.96001 | -74.96824 | 28974 ft | 456 kts | 43° |
| 2026-05-03 22:00 | 39.99687 | -74.90029 | 28980 ft | 461 kts | 51° |
| 2026-05-03 22:01 | 40.03235 | -74.83065 | 28979 ft | 461 kts | 51° |
| 2026-05-03 22:01 | 40.06780 | -74.76098 | 28980 ft | 461 kts | 51° |
| 2026-05-03 22:02 | 40.10325 | -74.69124 | 28966 ft | 461 kts | 51° |
| 2026-05-03 22:02 | 40.13850 | -74.62170 | 28989 ft | 460 kts | 51° |
| 2026-05-03 22:03 | 40.17377 | -74.55194 | 28984 ft | 460 kts | 51° |
| 2026-05-03 22:03 | 40.21225 | -74.48616 | 28978 ft | 449 kts | 38° |
| 2026-05-03 22:04 | 40.25953 | -74.43407 | 28977 ft | 444 kts | 32° |
| 2026-05-03 22:04 | 40.30743 | -74.38306 | 29004 ft | 444 kts | 32° |
| 2026-05-03 22:05 | 40.35519 | -74.33197 | 28997 ft | 443 kts | 32° |
| 2026-05-03 22:05 | 40.40289 | -74.28079 | 28971 ft | 443 kts | 32° |
| 2026-05-03 22:06 | 40.45021 | -74.22987 | 28959 ft | 443 kts | 32° |
| 2026-05-03 22:06 | 40.49815 | -74.17834 | 28982 ft | 443 kts | 32° |
| 2026-05-03 22:07 | 40.54543 | -74.12736 | 28966 ft | 442 kts | 32° |
| 2026-05-03 22:07 | 40.59292 | -74.07591 | 28955 ft | 442 kts | 32° |
| 2026-05-03 22:08 | 40.64070 | -74.02407 | 28944 ft | 442 kts | 32° |
| 2026-05-03 22:08 | 40.68780 | -73.97287 | 28972 ft | 442 kts | 33° |
| 2026-05-03 22:09 | 40.73523 | -73.92144 | 28941 ft | 442 kts | 33° |
| 2026-05-03 22:10 | 40.80637 | -73.84410 | 28936 ft | 442 kts | 33° |
| 2026-05-03 22:10 | 40.85306 | -73.79121 | 28959 ft | 446 kts | 41° |
| 2026-05-03 22:11 | 40.88954 | -73.72387 | 28937 ft | 454 kts | 54° |
| 2026-05-03 22:11 | 40.92208 | -73.65227 | 28929 ft | 454 kts | 54° |
| 2026-05-03 22:12 | 40.95466 | -73.58073 | 28925 ft | 454 kts | 54° |
| 2026-05-03 22:12 | 40.98723 | -73.50922 | 28922 ft | 454 kts | 54° |
| 2026-05-03 22:13 | 41.01970 | -73.43759 | 28937 ft | 453 kts | 54° |
| 2026-05-03 22:13 | 41.05204 | -73.36595 | 28932 ft | 453 kts | 54° |
| 2026-05-03 22:14 | 41.08436 | -73.29437 | 28942 ft | 453 kts | 54° |
| 2026-05-03 22:14 | 41.11645 | -73.22317 | 28914 ft | 453 kts | 54° |
| 2026-05-03 22:15 | 41.14874 | -73.15132 | 28894 ft | 454 kts | 54° |
| 2026-05-03 22:15 | 41.18130 | -73.07957 | 28928 ft | 453 kts | 53° |
| 2026-05-03 22:16 | 41.21482 | -73.00881 | 28919 ft | 452 kts | 52° |
| 2026-05-03 22:16 | 41.24847 | -72.93821 | 28924 ft | 452 kts | 53° |
| 2026-05-03 22:17 | 41.28186 | -72.86718 | 28895 ft | 454 kts | 53° |
| 2026-05-03 22:17 | 41.31515 | -72.79576 | 28920 ft | 455 kts | 53° |
| 2026-05-03 22:18 | 41.34843 | -72.72423 | 28918 ft | 455 kts | 53° |
| 2026-05-03 22:18 | 41.38248 | -72.65108 | 28898 ft | 475 kts | 53° |
| 2026-05-03 22:19 | 41.41772 | -72.57520 | 28898 ft | 485 kts | 54° |
| 2026-05-03 22:19 | 41.45313 | -72.49855 | 28897 ft | 486 kts | 54° |
| 2026-05-03 22:20 | 41.48825 | -72.42225 | 28893 ft | 486 kts | 54° |
| 2026-05-03 22:20 | 41.52364 | -72.34533 | 28889 ft | 486 kts | 54° |
| 2026-05-03 22:21 | 41.55896 | -72.26842 | 28889 ft | 486 kts | 54° |
| 2026-05-03 22:21 | 41.59429 | -72.19135 | 28888 ft | 487 kts | 54° |
| 2026-05-03 22:22 | 41.62951 | -72.11410 | 28910 ft | 487 kts | 55° |
| 2026-05-03 22:22 | 41.66475 | -72.03680 | 28908 ft | 487 kts | 55° |
| 2026-05-03 22:23 | 41.69994 | -71.95945 | 28899 ft | 487 kts | 55° |
| 2026-05-03 22:23 | 41.73501 | -71.88197 | 28896 ft | 487 kts | 55° |
| 2026-05-03 22:24 | 41.77011 | -71.80438 | 28875 ft | 488 kts | 55° |
| 2026-05-03 22:24 | 41.80527 | -71.72664 | 28867 ft | 488 kts | 55° |
| 2026-05-03 22:25 | 41.84025 | -71.64869 | 28862 ft | 488 kts | 57° |
| 2026-05-03 22:25 | 41.87040 | -71.56666 | 28861 ft | 491 kts | 61° |
| 2026-05-03 22:26 | 41.90011 | -71.48419 | 28864 ft | 491 kts | 61° |
| 2026-05-03 22:26 | 41.91482 | -71.44336 | 28874 ft | 478 kts | 61° |
| 2026-05-03 22:26 | 41.92898 | -71.40383 | 28856 ft | 463 kts | 61° |
| 2026-05-03 22:27 | 41.95638 | -71.32710 | 28857 ft | 458 kts | 61° |
| 2026-05-03 22:27 | 41.98396 | -71.25004 | 28854 ft | 457 kts | 61° |
| 2026-05-03 22:28 | 42.01149 | -71.17301 | 28848 ft | 457 kts | 61° |
| 2026-05-03 22:28 | 42.03891 | -71.09585 | 28846 ft | 457 kts | 62° |
| 2026-05-03 22:29 | 42.06628 | -71.01858 | 28859 ft | 456 kts | 60° |
| 2026-05-03 22:29 | 42.08255 | -70.98291 | 28852 ft | 451 kts | 49° |
| 2026-05-03 22:29 | 42.10270 | -70.95118 | 28615 ft | 441 kts | 40° |
| 2026-05-03 22:29 | 42.12589 | -70.92506 | 28336 ft | 429 kts | 29° |
| 2026-05-03 22:30 | 42.15170 | -70.90595 | 28057 ft | 419 kts | 17° |
| 2026-05-03 22:30 | 42.17890 | -70.89285 | 27786 ft | 414 kts | 13° |
| 2026-05-03 22:30 | 42.20610 | -70.88040 | 27517 ft | 412 kts | 13° |
| 2026-05-03 22:30 | 42.23315 | -70.86798 | 27267 ft | 411 kts | 14° |
| 2026-05-03 22:31 | 42.26013 | -70.85547 | 27003 ft | 409 kts | 14° |
| 2026-05-03 22:31 | 42.28698 | -70.84294 | 26744 ft | 407 kts | 14° |
| 2026-05-03 22:31 | 42.31403 | -70.83029 | 26479 ft | 405 kts | 14° |
| 2026-05-03 22:31 | 42.34022 | -70.81803 | 26221 ft | 403 kts | 14° |
| 2026-05-03 22:32 | 42.36666 | -70.80563 | 25963 ft | 401 kts | 14° |
| 2026-05-03 22:32 | 42.39295 | -70.79331 | 25727 ft | 399 kts | 14° |
| 2026-05-03 22:32 | 42.41896 | -70.78107 | 25437 ft | 392 kts | 14° |
| 2026-05-03 22:32 | 42.44429 | -70.76896 | 25006 ft | 387 kts | 15° |
| 2026-05-03 22:33 | 42.46930 | -70.75601 | 24581 ft | 383 kts | 17° |
| 2026-05-03 22:33 | 42.49390 | -70.74250 | 24168 ft | 379 kts | 18° |
| 2026-05-03 22:33 | 42.50138 | -70.73829 | 24041 ft | 377 kts | 18° |
| 2026-05-03 22:33 | 42.51186 | -70.73235 | 23863 ft | 376 kts | 18° |
| 2026-05-03 22:34 | 42.53583 | -70.71873 | 23451 ft | 371 kts | 18° |
| 2026-05-03 22:34 | 42.55953 | -70.70534 | 22997 ft | 367 kts | 17° |
| 2026-05-03 22:34 | 42.58290 | -70.69228 | 22593 ft | 360 kts | 17° |
| 2026-05-03 22:34 | 42.60588 | -70.67952 | 22182 ft | 354 kts | 17° |
| 2026-05-03 22:35 | 42.62847 | -70.66704 | 21785 ft | 348 kts | 17° |
| 2026-05-03 22:35 | 42.65075 | -70.65477 | 21379 ft | 344 kts | 17° |
| 2026-05-03 22:35 | 42.67350 | -70.64235 | 20963 ft | 362 kts | 17° |
| 2026-05-03 22:35 | 42.69693 | -70.62902 | 20522 ft | 365 kts | 19° |
| 2026-05-03 22:36 | 42.71991 | -70.61490 | 20074 ft | 360 kts | 20° |
| 2026-05-03 22:36 | 42.74238 | -70.60048 | 19643 ft | 355 kts | 20° |
| 2026-05-03 22:36 | 42.76455 | -70.58607 | 19203 ft | 351 kts | 20° |
| 2026-05-03 22:36 | 42.78621 | -70.57204 | 18764 ft | 348 kts | 20° |
| 2026-05-03 22:37 | 42.80801 | -70.55803 | 18325 ft | 345 kts | 20° |
| 2026-05-03 22:37 | 42.82961 | -70.54434 | 17860 ft | 341 kts | 19° |
| 2026-05-03 22:37 | 42.85115 | -70.53118 | 17378 ft | 338 kts | 19° |
| 2026-05-03 22:37 | 42.87262 | -70.51816 | 16884 ft | 337 kts | 19° |
| 2026-05-03 22:38 | 42.89386 | -70.50492 | 16595 ft | 336 kts | 20° |
| 2026-05-03 22:38 | 42.91499 | -70.49148 | 16330 ft | 334 kts | 20° |
| 2026-05-03 22:38 | 42.93577 | -70.47811 | 15992 ft | 327 kts | 20° |
| 2026-05-03 22:38 | 42.95615 | -70.46497 | 15586 ft | 321 kts | 20° |
| 2026-05-03 22:39 | 42.97622 | -70.45207 | 15179 ft | 316 kts | 20° |
| 2026-05-03 22:39 | 42.99599 | -70.43939 | 14771 ft | 312 kts | 20° |
| 2026-05-03 22:39 | 43.01554 | -70.42685 | 14353 ft | 309 kts | 21° |
| 2026-05-03 22:39 | 43.03407 | -70.41203 | 13946 ft | 309 kts | 27° |
| 2026-05-03 22:40 | 43.05246 | -70.39607 | 13522 ft | 317 kts | 27° |
| 2026-05-03 22:40 | 43.07112 | -70.37993 | 13079 ft | 318 kts | 27° |
| 2026-05-03 22:40 | 43.08977 | -70.36383 | 12652 ft | 316 kts | 27° |
| 2026-05-03 22:40 | 43.10829 | -70.34781 | 12233 ft | 314 kts | 27° |
| 2026-05-03 22:41 | 43.12667 | -70.33187 | 11815 ft | 311 kts | 28° |
| 2026-05-03 22:41 | 43.14488 | -70.31606 | 11408 ft | 309 kts | 28° |
| 2026-05-03 22:41 | 43.16294 | -70.30034 | 11003 ft | 306 kts | 28° |
| 2026-05-03 22:41 | 43.18101 | -70.28455 | 10395 ft | 309 kts | 28° |
| 2026-05-03 22:42 | 43.19867 | -70.26897 | 10247 ft | 295 kts | 28° |
| 2026-05-03 22:42 | 43.21560 | -70.25398 | 10030 ft | 286 kts | 28° |
| 2026-05-03 22:42 | 43.23210 | -70.23939 | 9820 ft | 280 kts | 28° |
| 2026-05-03 22:42 | 43.24844 | -70.22503 | 9524 ft | 278 kts | 28° |
| 2026-05-03 22:43 | 43.26475 | -70.21082 | 9199 ft | 277 kts | 27° |
| 2026-05-03 22:43 | 43.28107 | -70.19677 | 8894 ft | 277 kts | 27° |
| 2026-05-03 22:43 | 43.29734 | -70.18281 | 8601 ft | 275 kts | 27° |
| 2026-05-03 22:43 | 43.31353 | -70.16892 | 8301 ft | 274 kts | 27° |
| 2026-05-03 22:44 | 43.32964 | -70.15527 | 7991 ft | 271 kts | 25° |
| 2026-05-03 22:44 | 43.34589 | -70.14226 | 7681 ft | 269 kts | 24° |
| 2026-05-03 22:44 | 43.35664 | -70.13384 | 7488 ft | 268 kts | 24° |
| 2026-05-03 22:44 | 43.37280 | -70.12131 | 7191 ft | 266 kts | 24° |
| 2026-05-03 22:45 | 43.38887 | -70.10881 | 6897 ft | 265 kts | 24° |
| 2026-05-03 22:45 | 43.40484 | -70.09631 | 6586 ft | 264 kts | 24° |
| 2026-05-03 22:45 | 43.42585 | -70.07981 | 6214 ft | 262 kts | 24° |
| 2026-05-03 22:45 | 43.44158 | -70.06741 | 5895 ft | 259 kts | 24° |
| 2026-05-03 22:46 | 43.45710 | -70.05513 | 5606 ft | 253 kts | 24° |
| 2026-05-03 22:46 | 43.46728 | -70.04703 | 5398 ft | 247 kts | 24° |
| 2026-05-03 22:46 | 43.48217 | -70.03524 | 5125 ft | 246 kts | 24° |
| 2026-05-03 22:46 | 43.49671 | -70.02369 | 4855 ft | 237 kts | 24° |
| 2026-05-03 22:47 | 43.51080 | -70.01248 | 4594 ft | 230 kts | 24° |
| 2026-05-03 22:47 | 43.52441 | -70.00164 | 4345 ft | 224 kts | 24° |
| 2026-05-03 22:47 | 43.53783 | -69.99100 | 4082 ft | 221 kts | 24° |
| 2026-05-03 22:47 | 43.55092 | -69.98061 | 3833 ft | 213 kts | 23° |
| 2026-05-03 22:48 | 43.56428 | -69.97336 | 3621 ft | 202 kts | 3° |
| 2026-05-03 22:48 | 43.57792 | -69.97394 | 3554 ft | 192 kts | 343° |
| 2026-05-03 22:48 | 43.58957 | -69.98092 | 3479 ft | 179 kts | 324° |
| 2026-05-03 22:48 | 43.59829 | -69.99258 | 3407 ft | 175 kts | 307° |
| 2026-05-03 22:49 | 43.60502 | -70.00652 | 3315 ft | 174 kts | 305° |
| 2026-05-03 22:49 | 43.61174 | -70.02040 | 3233 ft | 174 kts | 305° |
| 2026-05-03 22:49 | 43.61844 | -70.03421 | 3146 ft | 173 kts | 305° |
| 2026-05-03 22:49 | 43.62485 | -70.04820 | 3069 ft | 173 kts | 298° |
| 2026-05-03 22:50 | 43.62787 | -70.06438 | 3017 ft | 177 kts | 279° |
| 2026-05-03 22:50 | 43.62902 | -70.08116 | 3009 ft | 176 kts | 281° |
| 2026-05-03 22:50 | 43.63022 | -70.09812 | 2916 ft | 178 kts | 281° |
| 2026-05-03 22:50 | 43.63140 | -70.11509 | 2711 ft | 174 kts | 280° |
| 2026-05-03 22:51 | 43.63253 | -70.13145 | 2486 ft | 170 kts | 281° |
| 2026-05-03 22:51 | 43.63365 | -70.14756 | 2261 ft | 167 kts | 281° |
| 2026-05-03 22:51 | 43.63475 | -70.16343 | 2036 ft | 165 kts | 281° |
| 2026-05-03 22:51 | 43.63581 | -70.17899 | 1827 ft | 156 kts | 281° |
| 2026-05-03 22:52 | 43.63676 | -70.19307 | 1601 ft | 139 kts | 281° |
| 2026-05-03 22:52 | 43.63765 | -70.20586 | 1406 ft | 131 kts | 281° |
| 2026-05-03 22:52 | 43.63851 | -70.21827 | 1232 ft | 129 kts | 281° |
| 2026-05-03 22:52 | 43.63936 | -70.23056 | 1053 ft | 128 kts | 281° |
| 2026-05-03 22:53 | 43.64020 | -70.24280 | 875 ft | 129 kts | 279° |
| 2026-05-03 22:53 | 43.64105 | -70.25521 | 704 ft | 130 kts | 279° |
| 2026-05-03 22:53 | 43.64189 | -70.26758 | 533 ft | 130 kts | 279° |
| 2026-05-03 22:53 | 43.64274 | -70.27998 | 361 ft | 130 kts | 280° |
| 2026-05-03 22:54 | 43.64358 | -70.29229 | 210 ft | 127 kts | 280° |
| 2026-05-03 22:54 | 43.64438 | -70.30439 | 74 ft | 126 kts | 279° |
| 2026-05-03 22:54 | 43.64516 | -70.31450 | 76 ft | 69 kts | 275° |
| 2026-05-03 22:54 | 43.64535 | -70.31752 | 81 ft | 15 kts | 275° |
| 2026-05-03 22:55 | 43.64551 | -70.31978 | 87 ft | 20 kts | 276° |
| 2026-05-03 22:55 | 43.64598 | -70.32079 | 88 ft | 13 kts | 345° |
| 2026-05-03 22:55 | 43.64658 | -70.32050 | 83 ft | 7 kts | 85° |
| 2026-05-03 22:55 | 43.64652 | -70.31929 | 79 ft | 18 kts | 96° |
| 2026-05-03 22:56 | 43.64638 | -70.31738 | 80 ft | 21 kts | 96° |
| 2026-05-03 22:56 | 43.64623 | -70.31522 | 77 ft | 24 kts | 95° |
| 2026-05-03 22:56 | 43.64611 | -70.31303 | 70 ft | 21 kts | 96° |
| 2026-05-03 22:56 | 43.64616 | -70.31139 | 69 ft | 15 kts | 50° |
| 2026-05-03 22:57 | 43.64675 | -70.31118 | 67 ft | 0 kts | 5° |